Time;durP1;ratioP1;P1;durP2;ratioP2;P2;SDS_P1;SDS_P2;PMS_P1;PMS_P2;Temp;Humidity;BMP_temperature;BMP_pressure;BME280_temperature;BME280_humidity;BME280_pressure;Samples;Min_cycle;Max_cycle;Signal;HPM_P1;HPM_P2
2022/06/26 00:00:59;;;;;;;7.57;7.27;;;21.10;12.90;;;;;;5033526;28;20565;-73
2022/06/26 00:03:26;;;;;;;7.90;7.60;;;21.20;12.70;;;;;;5033293;28;20254;-72
2022/06/26 00:05:52;;;;;;;7.97;7.57;;;21.20;12.70;;;;;;5033438;28;20455;-74
2022/06/26 00:08:18;;;;;;;7.43;7.13;;;21.20;12.90;;;;;;5032836;28;20513;-73
2022/06/26 00:10:45;;;;;;;8.33;7.93;;;21.20;12.70;;;;;;5033394;28;20945;-73
2022/06/26 00:13:11;;;;;;;8.50;8.10;;;21.20;12.90;;;;;;5033294;28;20206;-73
2022/06/26 00:15:36;;;;;;;7.60;7.20;;;21.10;12.30;;;;;;5033797;28;20456;-74
2022/06/26 00:18:02;;;;;;;7.67;7.37;;;21.10;12.40;;;;;;5032722;28;20191;-74
2022/06/26 00:20:29;;;;;;;7.53;7.20;;;21.00;12.80;;;;;;5033274;28;20214;-74
2022/06/26 00:22:54;;;;;;;7.60;7.30;;;21.10;12.80;;;;;;5033122;28;20258;-74
2022/06/26 00:25:20;;;;;;;7.17;6.77;;;21.00;13.40;;;;;;5033140;28;20922;-73
2022/06/26 00:27:46;;;;;;;7.10;6.80;;;21.00;15.50;;;;;;5032871;28;20206;-72
2022/06/26 00:30:13;;;;;;;7.77;7.37;;;21.00;15.60;;;;;;5031209;28;20824;-72
2022/06/26 00:32:39;;;;;;;6.80;6.40;;;21.00;15.50;;;;;;5031461;28;20429;-74
2022/06/26 00:35:05;;;;;;;6.40;6.10;;;21.00;15.70;;;;;;5032905;28;20410;-74
2022/06/26 00:37:30;;;;;;;6.07;5.77;;;20.90;16.00;;;;;;5032975;28;20202;-74
2022/06/26 00:39:56;;;;;;;5.63;5.33;;;20.70;16.70;;;;;;5031078;28;20849;-74
2022/06/26 00:42:22;;;;;;;6.00;5.70;;;20.60;17.00;;;;;;5032614;28;20186;-74
2022/06/26 00:44:51;;;;;;;6.53;6.23;;;20.60;17.00;;;;;;5032695;28;20258;-72
2022/06/26 00:47:17;;;;;;;5.87;5.57;;;20.60;17.00;;;;;;5032477;28;20178;-73
2022/06/26 00:49:44;;;;;;;6.00;5.70;;;20.40;16.80;;;;;;5032031;28;20905;-72
2022/06/26 00:52:09;;;;;;;5.27;5.03;;;20.40;16.80;;;;;;5032669;28;20418;-73
2022/06/26 00:54:38;;;;;;;5.97;5.67;;;20.50;16.90;;;;;;5032620;28;20978;-73
2022/06/26 00:57:04;;;;;;;5.47;5.20;;;20.60;17.00;;;;;;5032424;28;20176;-73
2022/06/26 00:59:31;;;;;;;5.70;5.40;;;20.50;16.90;;;;;;5031833;28;20465;-74
2022/06/26 01:01:56;;;;;;;5.60;5.30;;;20.50;16.90;;;;;;5032318;28;20414;-73
2022/06/26 01:04:22;;;;;;;5.83;5.53;;;20.50;16.90;;;;;;5032256;28;20428;-73
2022/06/26 01:06:49;;;;;;;6.50;6.10;;;20.50;16.90;;;;;;5031304;28;20206;-73
2022/06/26 01:09:15;;;;;;;6.10;5.80;;;20.60;17.00;;;;;;5031846;28;20206;-73
2022/06/26 01:11:42;;;;;;;5.73;5.43;;;20.60;17.10;;;;;;5032283;28;20437;-72
2022/06/26 01:14:09;;;;;;;5.53;5.20;;;20.50;17.10;;;;;;5032552;28;20661;-73
2022/06/26 01:16:36;;;;;;;5.87;5.57;;;20.50;17.60;;;;;;5031958;28;20426;-73
2022/06/26 01:19:04;;;;;;;5.50;5.20;;;20.60;17.40;;;;;;5030359;28;20964;-73
2022/06/26 01:21:30;;;;;;;5.63;5.33;;;20.60;17.90;;;;;;5030841;28;20797;-72
2022/06/26 01:23:56;;;;;;;5.60;5.20;;;20.60;17.30;;;;;;5032411;28;20414;-73
2022/06/26 01:26:23;;;;;;;5.90;5.60;;;20.60;17.70;;;;;;5032028;28;20426;-73
2022/06/26 01:28:48;;;;;;;5.43;5.13;;;20.60;17.80;;;;;;5031609;28;20195;-73
2022/06/26 01:31:14;;;;;;;5.40;5.10;;;20.60;17.50;;;;;;5030324;28;20645;-74
2022/06/26 01:33:40;;;;;;;4.97;4.77;;;20.50;17.90;;;;;;5031929;28;20221;-73
2022/06/26 01:36:06;;;;;;;5.70;5.40;;;20.60;18.50;;;;;;5031827;28;20759;-72
2022/06/26 01:38:32;;;;;;;5.43;5.17;;;20.60;18.00;;;;;;5031511;28;20444;-73
2022/06/26 01:40:58;;;;;;;5.50;5.20;;;20.70;18.10;;;;;;5031790;28;20184;-71
2022/06/26 01:43:32;;;;;;;5.03;4.73;;;20.60;18.00;;;;;;5031863;28;20187;-72
2022/06/26 01:45:59;;;;;;;5.20;4.90;;;20.60;18.20;;;;;;5030645;28;20430;-70
2022/06/26 01:48:26;;;;;;;5.17;4.87;;;20.60;18.30;;;;;;5031515;28;20527;-71
2022/06/26 01:50:53;;;;;;;5.60;5.20;;;20.50;18.40;;;;;;5031814;28;20481;-71
2022/06/26 01:53:19;;;;;;;5.20;4.90;;;20.60;18.40;;;;;;5031769;28;20454;-71
2022/06/26 01:55:45;;;;;;;5.13;4.80;;;20.60;18.40;;;;;;5031752;28;20937;-71
2022/06/26 01:58:10;;;;;;;5.53;5.23;;;20.50;18.40;;;;;;5031054;28;20465;-71
2022/06/26 02:00:38;;;;;;;4.90;4.60;;;20.50;18.80;;;;;;5031558;28;20266;-70
2022/06/26 02:03:05;;;;;;;5.70;5.30;;;20.60;18.80;;;;;;5031881;28;20321;-71
2022/06/26 02:05:30;;;;;;;5.37;4.97;;;20.70;18.50;;;;;;5031701;28;20426;-71
2022/06/26 02:07:56;;;;;;;5.40;5.10;;;20.80;19.10;;;;;;5029954;28;20442;-70
2022/06/26 02:15:53;;;;;;;4.80;4.50;;;20.90;18.30;;;;;;5031788;28;20420;-72
2022/06/26 02:18:19;;;;;;;4.77;4.47;;;20.50;19.00;;;;;;5034071;28;20438;-71
2022/06/26 02:20:45;;;;;;;4.53;4.23;;;20.20;20.30;;;;;;5035211;28;20414;-71
2022/06/26 02:23:11;;;;;;;4.30;4.00;;;20.00;20.90;;;;;;5035685;28;20406;-71
2022/06/26 02:25:37;;;;;;;3.80;3.60;;;19.80;21.10;;;;;;5036831;28;20176;-71
2022/06/26 02:28:04;;;;;;;3.63;3.43;;;19.90;21.20;;;;;;5035723;28;20781;-68
2022/06/26 02:30:29;;;;;;;4.40;4.10;;;19.80;21.60;;;;;;5035466;28;20211;-71
2022/06/26 02:32:57;;;;;;;3.83;3.63;;;19.90;21.20;;;;;;5035086;28;20414;-72
2022/06/26 02:35:25;;;;;;;3.53;3.23;;;19.90;21.10;;;;;;5035161;28;20184;-71
2022/06/26 02:37:51;;;;;;;3.87;3.60;;;20.00;21.50;;;;;;5033886;28;20806;-72
2022/06/26 02:40:19;;;;;;;3.80;3.50;;;20.00;20.90;;;;;;5034925;28;20428;-71
2022/06/26 02:42:45;;;;;;;3.73;3.40;;;20.10;21.00;;;;;;5035164;28;20429;-71
2022/06/26 02:45:11;;;;;;;4.00;3.70;;;19.70;22.10;;;;;;5033671;28;20867;-71
2022/06/26 02:47:36;;;;;;;2.73;2.53;;;19.50;22.60;;;;;;5033629;28;20832;-71
2022/06/26 02:50:03;;;;;;;3.47;3.17;;;19.40;23.10;;;;;;5034408;28;20453;-71
2022/06/26 02:52:29;;;;;;;2.30;2.10;;;19.40;23.20;;;;;;5034899;28;20197;-72
2022/06/26 02:54:55;;;;;;;3.10;2.60;;;19.20;23.90;;;;;;5034763;28;20420;-72
2022/06/26 02:57:20;;;;;;;2.67;2.47;;;19.30;24.20;;;;;;5033508;28;20418;-72
2022/06/26 02:59:46;;;;;;;3.10;2.80;;;19.40;23.50;;;;;;5032956;28;20698;-72
2022/06/26 03:02:12;;;;;;;3.87;2.40;;;19.10;24.60;;;;;;5034609;28;20183;-71
2022/06/26 03:04:37;;;;;;;2.70;2.50;;;19.00;24.70;;;;;;5034653;28;20187;-72
2022/06/26 03:07:03;;;;;;;2.70;2.50;;;18.90;24.90;;;;;;5034489;28;20274;-71
2022/06/26 03:09:29;;;;;;;2.97;2.77;;;18.80;25.40;;;;;;5034046;28;20249;-71
2022/06/26 03:11:55;;;;;;;2.83;2.53;;;18.90;25.10;;;;;;5034377;28;20417;-71
2022/06/26 03:14:20;;;;;;;2.77;2.57;;;19.00;25.10;;;;;;5034534;28;20175;-70
2022/06/26 03:16:46;;;;;;;3.13;2.77;;;19.10;24.80;;;;;;5034315;28;20651;-71
2022/06/26 03:19:14;;;;;;;3.73;3.43;;;19.10;24.60;;;;;;5034605;28;20623;-71
2022/06/26 03:21:40;;;;;;;3.10;2.80;;;19.20;24.70;;;;;;5034136;28;20573;-70
2022/06/26 03:24:05;;;;;;;2.53;2.33;;;19.10;24.70;;;;;;5039376;28;21011;-72
2022/06/26 03:26:33;;;;;;;3.07;2.77;;;19.10;24.60;;;;;;5042610;28;20193;-72
2022/06/26 03:29:00;;;;;;;2.60;2.40;;;19.20;24.70;;;;;;5042349;28;20690;-72
2022/06/26 03:31:26;;;;;;;2.80;2.60;;;19.30;24.70;;;;;;5052797;28;20461;-72
2022/06/26 03:33:52;;;;;;;3.43;2.53;;;19.10;24.60;;;;;;5054007;28;20583;-72
2022/06/26 03:36:17;;;;;;;2.80;2.50;;;18.90;25.00;;;;;;5053796;28;20959;-71
2022/06/26 03:38:44;;;;;;;2.43;2.10;;;18.90;25.40;;;;;;5052172;28;20202;-71
2022/06/26 03:41:10;;;;;;;2.77;2.57;;;19.10;24.70;;;;;;5053886;28;20273;-71
2022/06/26 03:43:36;;;;;;;2.80;2.20;;;19.30;24.70;;;;;;5053597;28;20416;-71
2022/06/26 03:46:01;;;;;;;3.10;2.80;;;19.30;24.70;;;;;;5053771;28;20417;-69
2022/06/26 03:48:27;;;;;;;3.20;2.40;;;19.10;25.50;;;;;;5051880;28;20356;-69
2022/06/26 03:50:53;;;;;;;2.40;2.20;;;18.90;26.00;;;;;;5053606;28;20213;-70
2022/06/26 03:53:19;;;;;;;6.50;2.50;;;19.10;26.00;;;;;;5053820;28;20421;-70
2022/06/26 03:55:44;;;;;;;2.30;2.10;;;19.00;26.50;;;;;;5053495;28;20288;-70
2022/06/26 03:58:10;;;;;;;3.20;2.83;;;19.00;26.50;;;;;;5081841;23;20517;-70
2022/06/26 04:00:36;;;;;;;2.33;2.13;;;19.00;26.00;;;;;;5093741;28;20214;-70
2022/06/26 04:03:04;;;;;;;4.50;2.53;;;19.20;25.70;;;;;;5093495;28;20169;-69
2022/06/26 04:05:30;;;;;;;2.40;2.20;;;19.30;25.40;;;;;;5093452;28;20406;-69
2022/06/26 04:07:55;;;;;;;2.80;2.60;;;19.30;24.70;;;;;;5093315;28;20421;-70
2022/06/26 04:10:21;;;;;;;3.00;2.63;;;19.20;25.60;;;;;;5094415;28;20454;-70
2022/06/26 04:12:47;;;;;;;4.53;3.00;;;19.20;25.80;;;;;;5093677;28;20176;-69
2022/06/26 04:15:13;;;;;;;2.93;2.70;;;19.40;25.30;;;;;;5094693;28;20169;-70
2022/06/26 04:17:38;;;;;;;3.40;3.10;;;19.60;25.10;;;;;;5095629;28;20399;-69
2022/06/26 04:20:04;;;;;;;6.10;3.97;;;19.60;24.90;;;;;;5093547;28;20198;-71
2022/06/26 04:22:30;;;;;;;2.60;2.40;;;19.60;24.90;;;;;;5096256;28;20185;-70
2022/06/26 04:24:55;;;;;;;3.13;2.80;;;19.60;24.90;;;;;;5095016;28;20419;-72
2022/06/26 04:27:21;;;;;;;6.33;2.73;;;19.60;25.00;;;;;;5093951;28;20178;-69
2022/06/26 04:29:47;;;;;;;3.40;2.60;;;19.60;24.90;;;;;;5094665;28;20208;-70
2022/06/26 04:32:12;;;;;;;2.63;2.20;;;19.70;25.00;;;;;;5095624;28;20177;-71
2022/06/26 04:34:38;;;;;;;5.63;2.53;;;19.70;25.00;;;;;;5095141;28;20176;-69
2022/06/26 04:37:04;;;;;;;3.50;2.93;;;19.70;25.00;;;;;;5094562;28;20268;-69
2022/06/26 04:39:30;;;;;;;3.30;3.00;;;19.80;25.10;;;;;;5092532;28;20192;-71
2022/06/26 04:41:56;;;;;;;2.60;2.40;;;19.90;25.00;;;;;;5091908;28;20883;-69
2022/06/26 04:44:22;;;;;;;3.63;2.67;;;20.00;24.60;;;;;;5092967;28;20502;-69
2022/06/26 04:46:48;;;;;;;3.10;2.90;;;20.10;24.30;;;;;;5092846;28;20173;-69
2022/06/26 04:49:14;;;;;;;3.73;3.30;;;20.30;24.00;;;;;;5092581;28;20450;-69
2022/06/26 04:51:40;;;;;;;2.80;2.60;;;20.30;23.80;;;;;;5092579;28;20554;-68
2022/06/26 04:54:08;;;;;;;2.93;2.73;;;20.50;23.10;;;;;;5093044;28;20897;-68
2022/06/26 04:56:35;;;;;;;4.20;3.90;;;20.60;22.80;;;;;;5092629;28;20443;-68
2022/06/26 04:59:01;;;;;;;3.37;3.17;;;20.80;22.20;;;;;;5090856;28;20773;-68
2022/06/26 05:01:27;;;;;;;4.40;4.00;;;21.00;22.10;;;;;;5092534;28;20780;-69
2022/06/26 05:03:53;;;;;;;4.00;3.80;;;21.30;21.80;;;;;;5092587;28;20775;-69
2022/06/26 05:06:19;;;;;;;4.93;4.73;;;21.50;21.50;;;;;;5092478;28;20498;-69
2022/06/26 05:08:45;;;;;;;4.87;4.57;;;21.70;20.60;;;;;;5092435;28;20470;-70
2022/06/26 05:11:10;;;;;;;5.07;4.80;;;21.70;19.90;;;;;;5092658;28;20209;-69
2022/06/26 05:13:36;;;;;;;5.20;4.90;;;21.70;20.00;;;;;;5092383;28;20177;-68
2022/06/26 05:16:02;;;;;;;5.50;5.20;;;21.80;19.80;;;;;;5092623;28;20180;-68
2022/06/26 05:18:27;;;;;;;5.70;5.40;;;22.00;19.60;;;;;;5090903;28;20254;-69
2022/06/26 05:20:53;;;;;;;6.57;6.27;;;22.10;19.00;;;;;;5092444;28;20177;-68
2022/06/26 05:23:19;;;;;;;5.97;5.77;;;22.00;18.50;;;;;;5093023;28;20625;-67
2022/06/26 05:25:45;;;;;;;6.73;6.13;;;22.10;18.70;;;;;;5091252;28;20488;-67
2022/06/26 05:28:11;;;;;;;5.70;5.40;;;22.10;18.50;;;;;;5092015;28;20431;-68
2022/06/26 05:30:37;;;;;;;6.10;5.80;;;22.00;18.80;;;;;;5092595;28;20453;-68
2022/06/26 05:33:03;;;;;;;5.40;5.20;;;22.00;18.80;;;;;;5092584;28;20173;-68
2022/06/26 05:35:29;;;;;;;5.10;4.90;;;22.00;18.60;;;;;;5092571;28;20516;-69
2022/06/26 05:37:55;;;;;;;6.10;5.80;;;22.00;19.00;;;;;;5093333;28;20464;-72
2022/06/26 05:40:20;;;;;;;6.00;5.67;;;22.00;19.00;;;;;;5092383;28;20415;-67
2022/06/26 05:42:46;;;;;;;5.90;5.60;;;21.90;18.80;;;;;;5092239;28;20564;-66
2022/06/26 05:45:12;;;;;;;5.63;5.33;;;21.90;19.40;;;;;;5092206;28;20173;-70
2022/06/26 05:47:37;;;;;;;5.83;5.63;;;22.00;19.10;;;;;;5092377;28;20177;-69
2022/06/26 05:50:04;;;;;;;6.03;5.73;;;22.20;19.00;;;;;;5090575;28;20682;-69
2022/06/26 05:52:29;;;;;;;10.67;6.63;;;22.40;18.70;;;;;;5094166;28;20216;-69
2022/06/26 05:54:55;;;;;;;7.30;6.80;;;22.60;18.30;;;;;;5096424;28;20883;-69
2022/06/26 05:57:20;;;;;;;6.90;6.50;;;22.90;18.50;;;;;;5096501;28;20181;-70
2022/06/26 05:59:47;;;;;;;8.87;8.47;;;23.80;19.10;;;;;;5095486;28;20586;-69
2022/06/26 06:02:12;;;;;;;11.00;10.50;;;25.40;14.20;;;;;;5096209;28;20181;-71
2022/06/26 06:04:38;;;;;;;10.70;10.30;;;27.10;12.10;;;;;;5096343;28;20403;-68
2022/06/26 06:07:04;;;;;;;11.57;11.07;;;28.90;9.20;;;;;;5096360;28;20211;-68
2022/06/26 06:09:31;;;;;;;12.30;11.63;;;30.20;6.30;;;;;;5095714;28;20193;-68
2022/06/26 06:11:56;;;;;;;12.23;11.73;;;31.10;4.90;;;;;;5096382;28;20419;-68
2022/06/26 06:14:22;;;;;;;13.13;12.63;;;31.80;3.70;;;;;;5096002;28;21034;-68
2022/06/26 06:16:48;;;;;;;12.60;12.20;;;32.80;2.30;;;;;;5096012;28;20173;-68
2022/06/26 06:19:13;;;;;;;12.87;12.37;;;33.90;1.00;;;;;;5094245;28;20239;-68
2022/06/26 06:21:39;;;;;;;12.77;12.17;;;34.20;1.00;;;;;;5096530;28;20208;-69
2022/06/26 06:24:05;;;;;;;13.10;12.60;;;34.50;1.00;;;;;;5094536;28;20605;-69
2022/06/26 06:26:30;;;;;;;12.83;12.33;;;35.10;1.00;;;;;;5094563;28;20200;-69
2022/06/26 06:28:56;;;;;;;13.27;12.77;;;35.50;1.00;;;;;;5095565;28;20197;-69
2022/06/26 06:31:21;;;;;;;13.80;13.30;;;36.10;1.00;;;;;;5095471;28;20261;-69
2022/06/26 06:33:47;;;;;;;13.40;12.90;;;36.60;1.00;;;;;;5095644;28;20265;-70
2022/06/26 06:36:12;;;;;;;13.90;13.40;;;36.80;1.00;;;;;;5095797;28;20177;-69
2022/06/26 06:38:38;;;;;;;13.90;13.40;;;37.10;1.00;;;;;;5095285;28;20200;-69
2022/06/26 06:41:04;;;;;;;14.00;13.50;;;37.40;1.00;;;;;;5095447;28;20640;-69
2022/06/26 06:43:29;;;;;;;14.13;13.53;;;37.70;1.00;;;;;;5094257;28;20263;-70
2022/06/26 06:45:55;;;;;;;13.37;12.87;;;37.70;1.00;;;;;;5095315;28;20562;-69
2022/06/26 06:48:21;;;;;;;14.00;13.50;;;37.00;1.00;;;;;;5095025;28;20201;-69
2022/06/26 06:50:47;;;;;;;13.73;13.13;;;35.80;1.00;;;;;;5095256;28;20231;-68
2022/06/26 06:53:13;;;;;;;13.63;13.13;;;34.80;1.00;;;;;;5095308;28;20490;-69
2022/06/26 06:55:38;;;;;;;13.60;13.10;;;34.40;1.00;;;;;;5095598;28;20169;-70
2022/06/26 06:58:05;;;;;;;13.30;12.80;;;33.90;1.00;;;;;;5093569;28;20278;-69
2022/06/26 07:00:30;;;;;;;13.23;12.73;;;33.60;1.00;;;;;;5095380;28;20191;-69
2022/06/26 07:03:00;;;;;;;13.10;12.60;;;33.20;1.00;;;;;;5095312;28;20510;-69
2022/06/26 07:05:26;;;;;;;13.63;12.77;;;32.70;1.00;;;;;;5095451;28;20545;-70
2022/06/26 07:07:52;;;;;;;14.27;13.37;;;32.50;1.00;;;;;;5093962;28;20764;-68
2022/06/26 07:10:17;;;;;;;14.70;13.60;;;32.00;1.00;;;;;;5095481;28;20504;-67
2022/06/26 07:12:55;;;;;;;13.87;13.17;;;31.60;1.00;;;;;;5094359;28;20272;-66
2022/06/26 07:15:21;;;;;;;12.73;12.23;;;31.70;1.00;;;;;;5097608;28;20224;-69
2022/06/26 07:17:47;;;;;;;12.40;11.90;;;32.20;1.00;;;;;;5094405;28;20411;-68
2022/06/26 07:20:13;;;;;;;13.50;13.00;;;32.30;1.00;;;;;;5094920;28;20422;-69
2022/06/26 07:22:38;;;;;;;12.73;12.27;;;32.10;1.00;;;;;;5094123;28;20424;-70
2022/06/26 07:25:04;;;;;;;13.30;12.80;;;32.00;1.00;;;;;;5096464;28;20545;-70
2022/06/26 07:27:30;;;;;;;13.10;12.60;;;32.10;1.00;;;;;;5096011;28;20459;-70
2022/06/26 07:29:56;;;;;;;13.50;13.00;;;32.60;1.00;;;;;;5095619;28;20462;-70
2022/06/26 07:32:21;;;;;;;12.90;12.40;;;30.20;1.00;;;;;;5095956;28;20249;-70
2022/06/26 07:34:47;;;;;;;13.03;12.53;;;28.70;3.70;;;;;;5096662;28;20177;-70
2022/06/26 07:37:12;;;;;;;12.93;12.53;;;29.70;2.30;;;;;;5094941;28;20258;-69
2022/06/26 07:39:38;;;;;;;12.87;12.37;;;29.90;1.00;;;;;;5093938;28;20201;-70
2022/06/26 07:42:04;;;;;;;12.90;12.40;;;29.50;1.90;;;;;;5094192;28;20205;-71
2022/06/26 07:44:30;;;;;;;13.20;12.70;;;28.40;3.50;;;;;;5093937;28;20201;-72
2022/06/26 07:46:57;;;;;;;12.70;12.20;;;28.70;2.50;;;;;;5092580;28;20909;-70
2022/06/26 07:49:23;;;;;;;13.20;12.70;;;29.10;2.40;;;;;;5093516;28;20530;-70
2022/06/26 07:51:49;;;;;;;12.10;11.70;;;29.10;2.10;;;;;;5094191;28;20486;-70
2022/06/26 07:54:15;;;;;;;12.20;11.80;;;28.20;3.10;;;;;;5093782;28;20724;-71
2022/06/26 07:56:42;;;;;;;12.77;12.27;;;29.10;2.20;;;;;;5089482;28;20435;-69
2022/06/26 07:59:08;;;;;;;13.37;12.80;;;29.10;2.20;;;;;;5088781;28;20454;-70
2022/06/26 08:01:33;;;;;;;12.90;12.23;;;30.50;1.00;;;;;;5086257;28;20925;-68
2022/06/26 08:03:59;;;;;;;12.37;11.87;;;31.30;1.00;;;;;;5072073;28;20354;-70
2022/06/26 08:06:25;;;;;;;13.00;12.40;;;30.50;1.00;;;;;;5078765;28;20196;-71
2022/06/26 08:08:51;;;;;;;12.50;12.10;;;30.30;1.00;;;;;;5068064;28;20202;-68
2022/06/26 08:11:17;;;;;;;12.87;12.37;;;30.10;1.00;;;;;;5081880;28;20583;-71
2022/06/26 08:13:43;;;;;;;13.10;12.57;;;31.00;1.00;;;;;;5087365;28;20246;-71
2022/06/26 08:16:09;;;;;;;13.03;12.53;;;31.90;1.00;;;;;;5088303;28;20199;-68
2022/06/26 08:18:35;;;;;;;13.80;13.20;;;32.50;1.00;;;;;;5089066;28;20534;-71
2022/06/26 08:22:00;;;;;;;13.70;12.83;;;33.00;1.00;;;;;;5077056;28;20523;-71
2022/06/26 08:23:49;;;;;;;13.43;12.93;;;33.30;1.00;;;;;;5084308;28;20291;-71
2022/06/26 08:26:14;;;;;;;12.83;12.33;;;32.90;1.00;;;;;;5088676;28;20427;-71
2022/06/26 08:28:40;;;;;;;12.70;12.10;;;31.60;1.00;;;;;;5106313;28;20441;-68
2022/06/26 08:31:06;;;;;;;13.10;12.60;;;31.70;1.00;;;;;;5109704;28;20282;-71
2022/06/26 08:33:31;;;;;;;12.50;12.10;;;31.70;1.00;;;;;;5108995;28;20180;-71
2022/06/26 08:35:57;;;;;;;12.60;12.20;;;31.80;1.00;;;;;;5109146;28;20238;-70
2022/06/26 08:38:22;;;;;;;12.77;12.27;;;31.50;1.00;;;;;;5108636;28;20197;-74
2022/06/26 08:40:48;;;;;;;12.70;12.10;;;31.20;1.00;;;;;;5081503;28;20627;-70
2022/06/26 08:43:20;;;;;;;13.00;12.50;;;31.40;1.00;;;;;;5072437;28;20246;-71
2022/06/26 08:45:47;;;;;;;12.63;12.13;;;31.10;1.00;;;;;;5089142;28;20423;-70
2022/06/26 08:48:17;;;;;;;13.70;13.10;;;31.30;1.00;;;;;;5086689;28;20542;-70
2022/06/26 08:50:43;;;;;;;13.03;12.43;;;31.20;1.00;;;;;;5088330;28;20458;-72
2022/06/26 08:53:10;;;;;;;12.47;12.00;;;29.90;1.00;;;;;;5089365;28;20423;-68
2022/06/26 08:55:36;;;;;;;12.97;12.27;;;30.10;1.00;;;;;;5087283;28;20420;-68
2022/06/26 08:58:01;;;;;;;13.40;12.90;;;29.50;1.70;;;;;;5072756;28;20934;-69
2022/06/26 09:00:27;;;;;;;13.10;12.60;;;29.40;1.30;;;;;;5067455;28;20451;-68
2022/06/26 09:02:52;;;;;;;13.40;12.90;;;29.10;2.80;;;;;;5068305;28;20254;-69
2022/06/26 09:05:18;;;;;;;12.80;12.17;;;28.30;3.40;;;;;;5066658;28;20190;-69
2022/06/26 09:07:52;;;;;;;11.90;11.50;;;27.30;4.30;;;;;;5076669;28;20551;-69
2022/06/26 09:10:17;;;;;;;12.60;12.10;;;27.30;4.80;;;;;;5088650;28;20679;-68
2022/06/26 09:12:53;;;;;;;12.40;11.90;;;27.20;4.50;;;;;;5088196;28;20480;-70
2022/06/26 09:15:21;;;;;;;12.60;12.10;;;27.30;5.20;;;;;;5089742;28;20372;-69
2022/06/26 09:17:57;;;;;;;12.43;11.93;;;27.20;5.20;;;;;;5082345;28;20469;-70
2022/06/26 09:20:23;;;;;;;11.30;10.80;;;26.20;6.00;;;;;;5072329;28;20862;-70
2022/06/26 09:22:56;;;;;;;11.63;11.13;;;25.90;7.40;;;;;;5072327;28;20522;-69
2022/06/26 09:25:45;;;;;;;12.00;11.50;;;25.70;7.70;;;;;;5071986;28;20177;-69
2022/06/26 09:28:17;;;;;;;11.70;11.30;;;25.70;8.50;;;;;;5083085;28;20451;-69
2022/06/26 09:30:51;;;;;;;11.93;11.33;;;25.60;8.20;;;;;;5092229;28;20465;-69
2022/06/26 09:33:34;;;;;;;11.17;10.70;;;25.60;8.50;;;;;;5092051;28;20411;-69
2022/06/26 09:36:01;;;;;;;11.47;10.97;;;25.90;8.40;;;;;;5080937;28;20473;-69
2022/06/26 09:38:32;;;;;;;11.70;11.20;;;25.90;8.10;;;;;;5071449;28;20933;-69
2022/06/26 09:41:03;;;;;;;10.90;10.50;;;25.80;7.80;;;;;;5071751;28;20809;-69
2022/06/26 09:43:29;;;;;;;11.03;10.63;;;25.90;8.00;;;;;;5071759;28;20418;-70
2022/06/26 09:45:55;;;;;;;11.40;10.90;;;26.00;8.10;;;;;;5080210;28;20431;-68
2022/06/26 09:48:25;;;;;;;11.10;10.70;;;26.20;8.10;;;;;;5091377;28;20192;-69
2022/06/26 09:50:52;;;;;;;11.00;10.60;;;26.30;7.00;;;;;;5089958;28;20447;-68
2022/06/26 09:53:18;;;;;;;11.50;11.00;;;25.90;7.90;;;;;;5091764;28;20414;-74
2022/06/26 09:55:46;;;;;;;11.87;11.33;;;26.30;7.00;;;;;;5080723;28;20495;-72
2022/06/26 09:58:14;;;;;;;10.80;10.30;;;26.60;7.00;;;;;;5070459;28;20587;-70
2022/06/26 10:00:40;;;;;;;11.43;10.93;;;26.10;7.00;;;;;;5071480;28;20411;-68
2022/06/26 10:08:38;;;;;;;11.00;10.60;;;26.00;6.80;;;;;;5071362;28;20435;-68
2022/06/26 10:11:05;;;;;;;10.87;10.37;;;25.90;7.90;;;;;;5071446;28;20474;-69
2022/06/26 10:13:33;;;;;;;10.73;10.33;;;26.10;7.00;;;;;;5071633;28;20472;-68
2022/06/26 10:16:34;;;;;;;10.90;10.50;;;25.70;7.60;;;;;;5086254;28;20468;-69
2022/06/26 10:19:19;;;;;;;10.97;10.57;;;25.60;7.80;;;;;;5066922;28;20454;-69
2022/06/26 10:21:46;;;;;;;10.80;10.40;;;25.80;7.80;;;;;;5092797;28;20627;-67
2022/06/26 10:24:12;;;;;;;10.70;10.30;;;25.60;7.80;;;;;;5091264;28;20442;-67
2022/06/26 10:26:37;;;;;;;10.57;10.17;;;25.50;8.10;;;;;;5071118;28;20431;-67
2022/06/26 10:29:04;;;;;;;10.27;9.87;;;25.40;7.70;;;;;;5070884;28;20198;-68
2022/06/26 10:31:49;;;;;;;10.40;10.00;;;25.00;8.80;;;;;;5071136;28;20204;-68
2022/06/26 10:34:20;;;;;;;10.50;10.10;;;25.10;8.50;;;;;;5071488;28;20415;-68
2022/06/26 10:37:14;;;;;;;10.57;10.07;;;25.20;8.40;;;;;;5071623;28;20911;-68
2022/06/26 10:39:41;;;;;;;10.57;10.17;;;25.20;8.30;;;;;;5080076;28;20438;-68
2022/06/26 10:45:05;;;;;;;9.80;9.47;;;25.30;8.90;;;;;;5075102;28;20403;-68
2022/06/26 10:47:45;;;;;;;10.57;10.17;;;25.50;8.20;;;;;;5074717;28;20416;-68
2022/06/26 10:50:26;;;;;;;11.07;10.67;;;25.70;7.30;;;;;;5074489;28;20490;-68
2022/06/26 10:53:10;;;;;;;11.60;11.10;;;25.50;7.80;;;;;;5090879;28;20770;-68
2022/06/26 10:55:36;;;;;;;11.30;10.80;;;25.70;7.40;;;;;;5094624;28;20423;-68
2022/06/26 10:58:02;;;;;;;10.77;10.37;;;25.70;7.00;;;;;;5094339;28;20515;-68
2022/06/26 11:00:28;;;;;;;11.40;11.00;;;25.90;6.90;;;;;;5095088;28;20495;-67
2022/06/26 11:02:53;;;;;;;12.10;11.60;;;26.40;6.50;;;;;;5075255;28;20216;-67
2022/06/26 11:05:20;;;;;;;12.07;11.37;;;26.60;5.40;;;;;;5069967;28;20424;-68
2022/06/26 11:07:51;;;;;;;12.27;11.80;;;26.80;5.30;;;;;;5070553;28;20592;-68
2022/06/26 11:10:19;;;;;;;12.57;12.07;;;27.00;4.90;;;;;;5070466;28;20554;-70
2022/06/26 11:12:47;;;;;;;11.43;11.03;;;26.40;5.80;;;;;;5069945;28;20427;-70
2022/06/26 11:15:32;;;;;;;12.67;12.17;;;26.40;5.70;;;;;;5069716;28;20430;-70
2022/06/26 11:18:02;;;;;;;11.87;11.37;;;26.60;6.30;;;;;;5069468;28;20407;-70
2022/06/26 11:20:46;;;;;;;12.23;11.73;;;26.60;6.30;;;;;;5070944;28;20428;-69
2022/06/26 11:23:14;;;;;;;11.17;10.70;;;26.10;6.90;;;;;;5070167;28;20423;-70
2022/06/26 11:25:43;;;;;;;11.97;11.57;;;26.00;7.20;;;;;;5074025;28;20423;-69
2022/06/26 11:28:10;;;;;;;11.53;11.00;;;26.10;7.80;;;;;;5089842;28;20443;-70
2022/06/26 11:30:38;;;;;;;11.87;11.27;;;26.50;7.30;;;;;;5071534;28;20472;-70
2022/06/26 11:33:04;;;;;;;11.60;11.10;;;26.80;6.40;;;;;;5069772;28;20973;-70
2022/06/26 11:35:30;;;;;;;12.23;11.73;;;26.90;6.80;;;;;;5069695;28;20806;-70
2022/06/26 11:37:55;;;;;;;11.60;11.20;;;26.70;6.70;;;;;;5070409;28;20419;-69
2022/06/26 11:40:22;;;;;;;11.70;11.20;;;26.70;7.10;;;;;;5089761;28;20254;-71
2022/06/26 11:42:55;;;;;;;11.67;11.27;;;26.60;7.10;;;;;;5089794;28;20268;-70
2022/06/26 11:45:25;;;;;;;11.87;11.20;;;26.50;7.20;;;;;;5089830;28;20455;-70
2022/06/26 11:47:54;;;;;;;11.00;10.60;;;26.50;7.10;;;;;;5090100;28;20449;-68
2022/06/26 11:50:22;;;;;;;11.80;11.30;;;26.50;7.20;;;;;;5068596;28;20762;-69
2022/06/26 11:52:52;;;;;;;11.30;10.90;;;26.50;7.30;;;;;;5067983;28;20420;-70
2022/06/26 11:55:18;;;;;;;11.50;11.10;;;26.40;6.90;;;;;;5077912;28;20563;-70
2022/06/26 11:57:44;;;;;;;12.23;11.43;;;26.30;7.30;;;;;;5090163;28;20526;-70
2022/06/26 12:00:12;;;;;;;11.00;10.60;;;26.30;7.70;;;;;;5092500;28;20192;-70
2022/06/26 12:02:42;;;;;;;10.80;10.30;;;26.40;7.60;;;;;;5093623;28;20765;-70
2022/06/26 12:05:08;;;;;;;11.00;10.60;;;26.40;7.30;;;;;;5073237;28;20759;-70
2022/06/26 12:07:41;;;;;;;11.50;11.00;;;26.40;6.90;;;;;;5110959;28;20453;-69
2022/06/26 12:10:10;;;;;;;11.00;10.60;;;26.30;7.50;;;;;;5094263;28;20463;-70
2022/06/26 12:12:36;;;;;;;11.60;11.10;;;26.30;7.50;;;;;;5093851;28;20415;-70
2022/06/26 12:15:02;;;;;;;10.83;10.30;;;26.20;7.50;;;;;;5093233;28;20431;-69
2022/06/26 12:17:29;;;;;;;11.10;10.60;;;26.10;7.90;;;;;;5109607;28;20176;-70
2022/06/26 12:20:05;;;;;;;10.60;10.20;;;26.10;7.70;;;;;;5092802;28;20472;-70
2022/06/26 12:22:32;;;;;;;10.90;10.40;;;26.00;8.10;;;;;;5093412;28;20395;-70
2022/06/26 12:24:59;;;;;;;11.20;10.80;;;26.20;8.00;;;;;;5093164;28;20423;-70
2022/06/26 12:27:37;;;;;;;10.97;10.57;;;26.30;8.10;;;;;;5092298;28;20415;-69
2022/06/26 12:30:15;;;;;;;10.30;9.90;;;26.20;7.60;;;;;;5071623;28;20508;-70
2022/06/26 12:32:41;;;;;;;10.50;10.10;;;26.20;7.00;;;;;;5072691;28;20419;-69
2022/06/26 12:35:07;;;;;;;10.53;9.90;;;26.30;7.20;;;;;;5087727;28;20481;-72
2022/06/26 12:37:32;;;;;;;10.87;10.37;;;26.30;8.20;;;;;;5087759;28;20483;-70
2022/06/26 12:39:58;;;;;;;10.57;10.17;;;26.30;7.90;;;;;;5066573;28;20214;-69
2022/06/26 12:42:23;;;;;;;10.43;9.80;;;26.20;8.10;;;;;;5080447;28;20189;-70
2022/06/26 12:44:49;;;;;;;10.60;10.20;;;26.10;8.30;;;;;;5088692;28;20679;-71
2022/06/26 12:47:15;;;;;;;10.73;10.33;;;26.00;7.70;;;;;;5088151;28;20265;-69
2022/06/26 12:49:41;;;;;;;10.40;10.00;;;26.10;8.00;;;;;;5088352;28;20193;-70
2022/06/26 12:52:07;;;;;;;10.80;10.40;;;26.10;7.80;;;;;;5088433;28;20177;-69
2022/06/26 12:54:33;;;;;;;10.70;10.30;;;26.30;8.00;;;;;;5098632;28;20414;-70